ADDS METAR Data INFO
IDs: Format: Raw Decoded Include TAF

Data at: 0708 UTC 16 Jan 2018

METAR for:KHLX (Hillsville/Twin Cnty, VA, US)
Text:KHLX 160655Z AUTO 18004KT 10SM CLR M05/M12 A3029 RMK AO2 T10471120
Temperature: -4.7°C ( 24°F)
Dewpoint:-12.0°C ( 10°F) [RH = 57%]
Pressure (altimeter):30.29 inches Hg (1025.8 mb)
Winds:from the S (180 degrees) at 5 MPH (4 knots; 2.1 m/s)
Visibility:10 or more sm (16+ km)
Ceiling:at least 12,000 feet AGL
Clouds:sky clear below 12,000 feet AGL
QC Flag:automated observation with no human augmentation